Time;durP1;ratioP1;P1;durP2;ratioP2;P2;SDS_P1;SDS_P2;PMS_P1;PMS_P2;Temp;Humidity;BMP_temperature;BMP_pressure;BME280_temperature;BME280_humidity;BME280_pressure;Samples;Min_cycle;Max_cycle;Signal;HPM_P1;HPM_P2
2022/04/12 00:01:39;;;;;;;2.60;2.10;;;14.50;91.20;;;;;;5049534;28;20211;-35
2022/04/12 00:04:09;;;;;;;3.03;1.90;;;14.40;91.20;;;;;;5048845;28;20639;-35
2022/04/12 00:06:43;;;;;;;3.70;1.90;;;14.40;91.20;;;;;;5049575;28;20226;-35
2022/04/12 00:09:10;;;;;;;3.33;2.10;;;14.40;91.20;;;;;;5068760;28;20231;-35
2022/04/12 00:11:42;;;;;;;3.07;1.90;;;14.30;91.10;;;;;;5068514;28;20298;-35
2022/04/12 00:14:10;;;;;;;2.90;1.75;;;14.30;91.10;;;;;;5067741;28;20729;-35
2022/04/12 00:16:40;;;;;;;2.65;1.92;;;14.30;91.20;;;;;;5069131;28;20242;-36
2022/04/12 00:19:12;;;;;;;2.63;1.80;;;14.30;91.20;;;;;;5068562;28;20265;-35
2022/04/12 00:21:45;;;;;;;2.28;1.83;;;14.30;91.20;;;;;;5049180;28;20318;-34
2022/04/12 00:24:14;;;;;;;4.37;1.77;;;14.30;91.20;;;;;;5048806;28;20286;-35
2022/04/12 00:26:44;;;;;;;2.90;2.05;;;14.30;91.20;;;;;;5049265;28;20219;-35
2022/04/12 00:29:11;;;;;;;3.97;1.90;;;14.20;91.10;;;;;;5064268;28;20219;-35
2022/04/12 00:31:42;;;;;;;3.67;1.83;;;14.20;91.10;;;;;;5066022;28;20218;-35
2022/04/12 00:34:12;;;;;;;2.55;1.73;;;14.20;91.10;;;;;;5066622;28;20270;-35
2022/04/12 00:36:46;;;;;;;3.35;1.88;;;14.10;91.10;;;;;;5068726;28;20294;-36
2022/04/12 00:39:14;;;;;;;3.07;2.00;;;14.10;91.20;;;;;;5068600;28;20713;-35
2022/04/12 00:41:42;;;;;;;3.38;1.90;;;14.10;91.20;;;;;;5068702;28;20790;-35
2022/04/12 00:44:10;;;;;;;2.78;2.20;;;14.10;91.20;;;;;;5066758;28;20228;-35
2022/04/12 00:46:37;;;;;;;3.95;2.22;;;14.10;91.20;;;;;;5048623;28;20295;-35
2022/04/12 00:49:06;;;;;;;4.20;2.20;;;14.00;91.10;;;;;;5055344;28;20210;-35
2022/04/12 00:51:38;;;;;;;4.80;2.25;;;14.00;91.20;;;;;;5068773;28;20309;-35
2022/04/12 00:54:08;;;;;;;3.83;2.25;;;14.00;91.20;;;;;;5067977;28;20333;-35
2022/04/12 00:56:42;;;;;;;3.07;2.30;;;14.00;91.20;;;;;;5059428;28;20279;-35
2022/04/12 00:59:12;;;;;;;3.42;2.10;;;13.90;91.10;;;;;;5059076;28;20199;-35
2022/04/12 01:01:41;;;;;;;2.83;2.20;;;13.90;91.20;;;;;;5062060;28;20234;-36
2022/04/12 01:04:10;;;;;;;3.50;2.27;;;13.90;91.10;;;;;;5060425;28;20689;-35
2022/04/12 01:06:40;;;;;;;4.78;2.53;;;13.80;91.10;;;;;;5067900;28;20551;-35
2022/04/12 01:09:12;;;;;;;4.70;2.17;;;13.80;91.10;;;;;;5068122;28;20291;-36
2022/04/12 01:11:47;;;;;;;2.87;2.20;;;13.80;91.10;;;;;;5068074;28;20261;-36
2022/04/12 01:14:15;;;;;;;4.67;2.20;;;13.80;91.10;;;;;;5067366;28;20649;-35
2022/04/12 01:16:43;;;;;;;4.53;2.30;;;13.70;91.10;;;;;;5067434;28;20533;-36
2022/04/12 01:19:10;;;;;;;3.53;2.33;;;13.70;91.10;;;;;;5066308;28;20223;-36
2022/04/12 01:22:06;;;;;;;4.03;2.23;;;13.70;91.10;;;;;;5068888;28;20203;-35
2022/04/12 01:24:36;;;;;;;3.60;2.33;;;13.60;91.20;;;;;;5061256;28;20318;-36
2022/04/12 01:27:06;;;;;;;2.93;2.20;;;13.60;91.10;;;;;;5061217;28;20229;-35
2022/04/12 01:29:36;;;;;;;2.87;2.03;;;13.60;91.20;;;;;;5067210;28;20819;-35
2022/04/12 01:32:07;;;;;;;2.93;2.27;;;13.50;91.10;;;;;;5057868;28;20448;-36
2022/04/12 01:34:35;;;;;;;3.53;2.50;;;13.50;91.10;;;;;;5067062;28;20269;-35
2022/04/12 01:37:07;;;;;;;3.60;2.00;;;13.50;91.10;;;;;;5059040;28;20215;-36
2022/04/12 01:39:37;;;;;;;4.80;2.57;;;13.50;91.20;;;;;;5050963;28;20214;-35
2022/04/12 01:42:09;;;;;;;2.73;2.00;;;13.50;91.20;;;;;;5067757;28;20207;-36
2022/04/12 01:44:39;;;;;;;4.67;2.40;;;13.50;91.20;;;;;;5066901;28;20705;-35
2022/04/12 01:47:06;;;;;;;3.13;2.13;;;13.40;91.20;;;;;;5067355;28;20727;-35
2022/04/12 01:49:34;;;;;;;3.20;2.50;;;13.40;91.20;;;;;;5067087;28;20203;-36
2022/04/12 01:52:02;;;;;;;4.78;2.30;;;13.40;91.20;;;;;;5068010;28;20192;-35
2022/04/12 01:54:34;;;;;;;2.20;1.80;;;13.40;91.20;;;;;;5066587;28;20235;-35
2022/04/12 01:57:01;;;;;;;2.97;2.20;;;13.40;91.20;;;;;;5067574;28;20207;-35
2022/04/12 01:59:30;;;;;;;5.17;2.30;;;13.30;91.20;;;;;;5065486;28;20464;-35
2022/04/12 02:01:58;;;;;;;3.07;2.20;;;13.30;91.20;;;;;;5067005;28;20195;-35
2022/04/12 02:04:29;;;;;;;2.37;2.10;;;13.30;91.20;;;;;;5066918;28;20227;-35
2022/04/12 02:06:57;;;;;;;3.87;2.30;;;13.30;91.20;;;;;;5056148;28;20317;-35
2022/04/12 02:09:24;;;;;;;2.10;1.90;;;13.30;91.20;;;;;;5064586;28;20204;-36
2022/04/12 02:11:55;;;;;;;3.60;2.00;;;13.30;91.20;;;;;;5047059;28;20211;-35
2022/04/12 02:14:22;;;;;;;3.83;2.63;;;13.30;91.20;;;;;;5046092;28;20619;-35
2022/04/12 02:16:52;;;;;;;4.27;2.27;;;13.20;91.20;;;;;;5045441;28;20230;-36
2022/04/12 02:19:22;;;;;;;3.67;1.90;;;13.20;91.20;;;;;;5047075;28;20227;-35
2022/04/12 02:21:51;;;;;;;2.33;1.93;;;13.20;91.20;;;;;;5066987;28;20203;-35
2022/04/12 02:24:19;;;;;;;3.77;2.10;;;13.20;91.20;;;;;;5067366;28;20232;-36
2022/04/12 02:26:48;;;;;;;3.03;2.03;;;13.20;91.20;;;;;;5063230;28;20302;-35
2022/04/12 02:29:18;;;;;;;4.33;2.43;;;13.20;91.20;;;;;;5046667;28;20519;-35
2022/04/12 02:31:47;;;;;;;4.20;2.30;;;13.20;91.20;;;;;;5060013;28;20238;-35
2022/04/12 02:34:18;;;;;;;4.30;2.27;;;13.10;91.20;;;;;;5066742;28;20724;-35
2022/04/12 02:36:47;;;;;;;3.43;2.33;;;13.10;91.20;;;;;;5066553;28;20689;-35
2022/04/12 02:39:18;;;;;;;3.17;2.50;;;13.10;91.20;;;;;;5066911;28;20234;-35
2022/04/12 02:41:48;;;;;;;3.30;2.40;;;13.00;91.10;;;;;;5067076;28;20221;-35
2022/04/12 02:44:17;;;;;;;2.87;2.10;;;13.00;91.50;;;;;;5064473;28;20223;-35
2022/04/12 02:46:46;;;;;;;2.70;2.40;;;13.00;91.10;;;;;;5066497;28;20741;-35
2022/04/12 02:49:14;;;;;;;2.60;2.17;;;12.90;91.10;;;;;;5065999;28;20211;-36
2022/04/12 02:51:45;;;;;;;3.50;2.27;;;12.90;91.10;;;;;;5068435;28;20284;-35
2022/04/12 02:54:13;;;;;;;4.00;2.33;;;12.90;91.20;;;;;;5069041;28;20247;-35
2022/04/12 02:56:40;;;;;;;3.07;2.27;;;12.80;91.10;;;;;;5070794;28;20628;-35
2022/04/12 02:59:08;;;;;;;4.57;2.50;;;12.80;91.20;;;;;;5070798;28;20204;-36
2022/04/12 03:01:42;;;;;;;3.10;2.00;;;12.80;91.20;;;;;;5059124;28;20220;-35
2022/04/12 03:04:14;;;;;;;2.93;2.10;;;12.70;91.10;;;;;;5050125;28;20610;-35
2022/04/12 03:06:44;;;;;;;5.17;2.50;;;12.70;91.10;;;;;;5070170;28;20206;-35
2022/04/12 03:09:18;;;;;;;3.27;2.27;;;12.70;91.20;;;;;;5063942;28;20216;-35
2022/04/12 03:11:47;;;;;;;2.70;2.00;;;12.70;91.10;;;;;;5070475;28;20265;-35
2022/04/12 03:14:17;;;;;;;4.63;2.37;;;12.70;91.20;;;;;;5062580;28;20700;-35
2022/04/12 03:16:46;;;;;;;3.63;2.20;;;12.60;91.10;;;;;;5065016;28;20228;-35
2022/04/12 03:19:15;;;;;;;3.77;2.30;;;12.60;91.10;;;;;;5063782;28;20297;-36
2022/04/12 03:21:45;;;;;;;4.57;2.33;;;12.60;91.10;;;;;;5085056;28;20203;-35
2022/04/12 03:24:15;;;;;;;3.20;2.30;;;12.60;91.10;;;;;;5070439;28;20324;-35
2022/04/12 03:26:42;;;;;;;3.10;2.43;;;12.60;91.20;;;;;;5068480;28;20579;-35
2022/04/12 03:29:11;;;;;;;3.33;2.50;;;12.60;91.50;;;;;;5070610;28;20290;-35
2022/04/12 03:31:39;;;;;;;3.17;2.37;;;12.50;91.10;;;;;;5069532;28;20249;-35
2022/04/12 03:34:06;;;;;;;3.83;2.17;;;12.50;91.10;;;;;;5069771;28;20203;-35
2022/04/12 03:36:33;;;;;;;3.13;2.30;;;12.50;91.20;;;;;;5050797;28;20224;-35
2022/04/12 03:39:05;;;;;;;4.67;2.40;;;12.50;91.20;;;;;;5056668;28;20303;-35
2022/04/12 03:41:35;;;;;;;6.23;2.80;;;12.50;91.10;;;;;;5069435;28;20693;-35
2022/04/12 03:44:03;;;;;;;3.60;2.57;;;12.50;91.10;;;;;;5070081;28;20224;-35
2022/04/12 03:46:35;;;;;;;4.10;2.47;;;12.50;91.20;;;;;;5068960;28;20212;-35
2022/04/12 03:49:03;;;;;;;3.97;2.30;;;12.40;91.20;;;;;;5069214;28;20935;-35
2022/04/12 03:51:35;;;;;;;5.83;2.63;;;12.50;91.20;;;;;;5067823;28;20199;-35
2022/04/12 03:54:05;;;;;;;3.37;2.80;;;12.40;91.20;;;;;;5069288;28;20296;-35
2022/04/12 03:56:37;;;;;;;6.13;2.60;;;12.40;91.20;;;;;;5069243;28;20269;-35
2022/04/12 03:59:06;;;;;;;4.80;2.90;;;12.40;91.20;;;;;;5069525;28;20269;-35
2022/04/12 04:01:38;;;;;;;4.07;2.53;;;12.40;91.30;;;;;;5068676;28;20200;-35
2022/04/12 04:04:10;;;;;;;3.13;2.40;;;12.30;91.20;;;;;;5069271;28;20584;-35
2022/04/12 04:06:41;;;;;;;4.20;2.40;;;12.30;91.20;;;;;;5067628;28;20208;-35
2022/04/12 04:09:13;;;;;;;5.25;2.65;;;12.30;91.20;;;;;;5065924;28;20678;-35
2022/04/12 04:11:42;;;;;;;4.23;2.73;;;12.30;91.20;;;;;;5067815;28;20216;-34
2022/04/12 04:14:14;;;;;;;3.20;2.43;;;12.30;91.20;;;;;;5068881;28;20215;-35
2022/04/12 04:16:46;;;;;;;4.37;3.23;;;12.20;91.20;;;;;;5068622;28;20665;-34
2022/04/12 04:19:14;;;;;;;4.83;2.50;;;12.20;91.30;;;;;;5069011;28;20540;-34
2022/04/12 04:21:45;;;;;;;5.17;2.73;;;12.20;91.30;;;;;;5087746;28;20211;-36
2022/04/12 04:24:14;;;;;;;4.63;2.93;;;12.20;91.30;;;;;;5088922;28;20305;-34
2022/04/12 04:26:48;;;;;;;2.83;2.50;;;12.10;91.30;;;;;;5065593;28;20710;-35
2022/04/12 04:29:18;;;;;;;4.17;2.50;;;12.10;91.30;;;;;;5049220;28;20216;-35
2022/04/12 04:31:48;;;;;;;4.80;3.10;;;12.10;91.30;;;;;;5068682;28;20233;-40
2022/04/12 04:34:15;;;;;;;5.87;2.90;;;12.10;91.30;;;;;;5068655;28;20218;-35
2022/04/12 04:36:47;;;;;;;3.97;2.80;;;12.00;91.30;;;;;;5068713;28;20226;-34
2022/04/12 04:39:15;;;;;;;6.90;2.90;;;12.10;91.40;;;;;;5056949;28;20215;-35
2022/04/12 04:41:42;;;;;;;4.03;2.43;;;12.10;91.30;;;;;;5067763;28;20207;-35
2022/04/12 04:44:12;;;;;;;4.97;2.60;;;12.00;91.30;;;;;;5067650;28;20207;-36
2022/04/12 04:46:39;;;;;;;3.70;2.70;;;12.00;91.30;;;;;;5070685;28;20385;-36
2022/04/12 04:49:09;;;;;;;4.43;2.67;;;12.00;91.40;;;;;;5071738;28;20199;-36
2022/04/12 04:51:41;;;;;;;3.70;2.60;;;12.00;91.40;;;;;;5072047;28;20199;-35
2022/04/12 04:54:09;;;;;;;3.30;2.70;;;12.00;91.40;;;;;;5072286;28;20322;-34
2022/04/12 04:56:38;;;;;;;4.00;2.50;;;12.00;91.40;;;;;;5070721;28;20212;-34
2022/04/12 04:59:11;;;;;;;5.93;3.10;;;11.90;91.40;;;;;;5070343;28;20216;-35
2022/04/12 05:01:43;;;;;;;3.70;2.93;;;11.90;91.40;;;;;;5066863;28;20207;-34
2022/04/12 05:04:11;;;;;;;4.23;2.80;;;11.90;91.40;;;;;;5065208;28;20223;-34
2022/04/12 05:06:38;;;;;;;4.15;2.70;;;11.90;91.40;;;;;;5068543;28;20200;-34
2022/04/12 05:09:07;;;;;;;3.90;2.60;;;11.90;91.50;;;;;;5067413;28;20206;-34
2022/04/12 05:11:39;;;;;;;4.63;2.73;;;11.90;91.50;;;;;;5068157;28;20200;-34
2022/04/12 05:14:11;;;;;;;5.63;3.10;;;11.90;91.50;;;;;;5065517;28;20223;-35
2022/04/12 05:16:38;;;;;;;3.10;2.70;;;11.90;91.60;;;;;;5064702;28;20303;-34
2022/04/12 05:19:06;;;;;;;5.03;2.77;;;11.90;91.60;;;;;;5059741;28;20204;-35
2022/04/12 05:21:37;;;;;;;5.27;3.20;;;11.90;91.50;;;;;;5067794;28;20686;-35
2022/04/12 05:24:06;;;;;;;4.33;3.07;;;11.90;91.60;;;;;;5068032;28;20273;-35
2022/04/12 05:26:36;;;;;;;5.83;3.00;;;11.90;91.60;;;;;;5067780;28;20200;-34
2022/04/12 05:29:08;;;;;;;3.17;2.80;;;11.90;91.70;;;;;;5067350;28;20207;-36
2022/04/12 05:31:40;;;;;;;4.53;2.80;;;12.00;91.60;;;;;;5064748;28;20194;-35
2022/04/12 05:34:07;;;;;;;4.90;2.60;;;12.00;91.70;;;;;;5050773;28;20246;-35
2022/04/12 05:36:37;;;;;;;6.20;3.10;;;12.00;91.70;;;;;;5066528;28;20215;-34
2022/04/12 05:39:04;;;;;;;3.87;2.83;;;12.10;91.80;;;;;;5038064;28;20216;-34
2022/04/12 05:41:35;;;;;;;6.87;3.00;;;12.00;91.80;;;;;;5057319;28;20242;-34
2022/04/12 05:44:06;;;;;;;4.53;2.67;;;12.10;91.90;;;;;;5057533;28;20200;-35
2022/04/12 05:46:35;;;;;;;5.20;2.73;;;12.10;91.80;;;;;;5064749;28;20558;-35
2022/04/12 05:49:06;;;;;;;5.90;3.20;;;12.10;91.80;;;;;;5064031;28;20206;-35
2022/04/12 05:51:36;;;;;;;5.00;2.90;;;12.10;91.90;;;;;;5051768;28;20215;-35
2022/04/12 05:54:08;;;;;;;5.40;2.73;;;12.20;92.00;;;;;;5061070;28;20224;-34
2022/04/12 05:56:37;;;;;;;8.70;3.00;;;12.20;92.00;;;;;;5060913;28;20207;-35
2022/04/12 05:59:06;;;;;;;11.27;2.93;;;12.20;92.00;;;;;;5056740;28;20306;-35
2022/04/12 06:01:36;;;;;;;11.53;3.60;;;12.20;92.00;;;;;;5060320;28;20703;-35
2022/04/12 06:04:05;;;;;;;4.77;2.90;;;12.30;92.10;;;;;;5046697;28;20195;-35
2022/04/12 06:06:33;;;;;;;5.63;3.10;;;12.30;92.10;;;;;;5046270;28;20318;-35
2022/04/12 06:09:06;;;;;;;5.47;2.90;;;12.30;92.10;;;;;;5063576;28;20211;-35
2022/04/12 06:11:33;;;;;;;5.47;2.90;;;12.40;92.20;;;;;;5062000;28;20675;-35
2022/04/12 06:14:01;;;;;;;8.57;2.67;;;12.40;92.20;;;;;;5059891;28;20665;-42
2022/04/12 06:16:30;;;;;;;17.07;3.80;;;12.50;92.30;;;;;;5060520;28;20268;-35
2022/04/12 06:18:57;;;;;;;17.17;3.73;;;12.50;92.50;;;;;;5063359;28;20247;-35
2022/04/12 06:21:27;;;;;;;8.30;3.40;;;12.60;92.40;;;;;;5058989;28;20206;-35
2022/04/12 06:23:59;;;;;;;9.23;2.90;;;12.60;92.40;;;;;;5056095;28;20214;-34
2022/04/12 06:26:26;;;;;;;3.53;2.83;;;12.70;92.50;;;;;;5062017;28;20220;-35
2022/04/12 06:28:56;;;;;;;7.47;2.97;;;12.70;92.50;;;;;;5060653;28;20200;-35
2022/04/12 06:31:23;;;;;;;7.60;3.00;;;12.70;92.50;;;;;;5062524;28;20291;-35
2022/04/12 06:33:53;;;;;;;2.97;2.50;;;12.70;92.60;;;;;;5051782;28;20204;-36
2022/04/12 06:36:23;;;;;;;5.50;2.77;;;12.80;92.60;;;;;;5057929;28;20211;-36
2022/04/12 06:38:50;;;;;;;4.93;2.63;;;12.90;92.70;;;;;;5054296;28;20215;-36
2022/04/12 06:41:18;;;;;;;5.77;2.93;;;12.90;92.70;;;;;;5065550;28;20580;-35
2022/04/12 06:43:50;;;;;;;4.90;3.20;;;12.90;92.70;;;;;;5062414;28;20658;-36
2022/04/12 06:46:20;;;;;;;4.87;2.90;;;13.00;92.80;;;;;;5064449;28;20716;-35
2022/04/12 06:48:48;;;;;;;5.43;2.73;;;13.10;92.90;;;;;;5061441;28;20223;-37
2022/04/12 06:51:15;;;;;;;6.70;3.20;;;13.10;92.90;;;;;;5068926;28;20187;-36
2022/04/12 06:53:42;;;;;;;4.77;2.63;;;13.20;93.30;;;;;;5032863;28;20212;-36
2022/04/12 06:56:15;;;;;;;5.23;2.60;;;13.30;93.10;;;;;;5066781;28;20302;-36
2022/04/12 06:58:44;;;;;;;3.77;2.40;;;13.30;93.10;;;;;;5065868;28;20239;-36
2022/04/12 07:01:11;;;;;;;4.90;2.60;;;13.40;93.10;;;;;;5049674;28;20298;-37
2022/04/12 07:03:44;;;;;;;4.97;2.93;;;13.40;93.20;;;;;;5061361;28;20261;-36
2022/04/12 07:06:18;;;;;;;14.03;3.20;;;13.50;93.20;;;;;;5069226;28;20305;-36
2022/04/12 07:08:45;;;;;;;5.72;3.08;;;13.60;93.30;;;;;;5069850;28;20634;-36
2022/04/12 07:11:15;;;;;;;6.70;2.97;;;13.60;93.40;;;;;;5051568;28;20215;-37
2022/04/12 07:13:42;;;;;;;5.33;2.80;;;13.70;93.50;;;;;;5067125;28;20292;-36
2022/04/12 07:16:09;;;;;;;5.90;2.70;;;13.80;93.60;;;;;;5049862;28;20298;-36
2022/04/12 07:18:37;;;;;;;7.57;3.00;;;13.80;93.60;;;;;;5068014;28;20265;-36
2022/04/12 07:21:09;;;;;;;5.10;2.90;;;13.90;93.70;;;;;;5063622;28;20216;-36
2022/04/12 07:23:37;;;;;;;4.63;2.60;;;14.00;93.80;;;;;;5069427;28;20204;-36
2022/04/12 07:26:09;;;;;;;5.85;2.90;;;14.00;93.70;;;;;;5069820;28;20621;-36
2022/04/12 07:28:36;;;;;;;6.20;3.07;;;14.10;93.90;;;;;;5068578;28;20204;-36
2022/04/12 07:31:06;;;;;;;5.05;2.50;;;14.10;93.90;;;;;;5059313;28;20223;-35
2022/04/12 07:33:40;;;;;;;4.18;2.67;;;14.20;94.00;;;;;;5066560;28;20198;-36
2022/04/12 07:36:15;;;;;;;5.27;2.80;;;14.30;94.10;;;;;;5062789;28;20199;-36
2022/04/12 07:38:45;;;;;;;5.10;2.60;;;14.40;94.10;;;;;;5056053;28;20669;-36
2022/04/12 07:41:12;;;;;;;5.07;2.65;;;14.40;94.20;;;;;;5058052;28;20204;-36
2022/04/12 07:43:45;;;;;;;2.38;2.08;;;14.50;94.20;;;;;;5059927;28;20857;-36
2022/04/12 07:46:16;;;;;;;4.57;2.50;;;14.60;94.30;;;;;;5058952;28;20228;-36
2022/04/12 07:48:49;;;;;;;3.97;2.40;;;14.70;94.50;;;;;;5069363;28;20710;-36
2022/04/12 07:51:19;;;;;;;3.20;2.17;;;14.80;94.50;;;;;;5067397;28;20626;-36
2022/04/12 07:53:51;;;;;;;7.95;3.10;;;14.80;94.50;;;;;;5068268;28;20816;-36
2022/04/12 07:56:25;;;;;;;5.57;2.42;;;14.90;94.80;;;;;;5055966;28;20213;-36
2022/04/12 07:58:55;;;;;;;8.48;2.58;;;15.10;94.80;;;;;;5069191;28;20198;-36
2022/04/12 08:01:24;;;;;;;12.02;3.47;;;15.20;94.80;;;;;;5062695;28;20199;-36
2022/04/12 08:03:52;;;;;;;6.95;2.75;;;15.30;94.90;;;;;;5064651;28;20302;-36
2022/04/12 08:06:22;;;;;;;14.15;2.95;;;15.40;95.00;;;;;;5050120;28;20718;-36
2022/04/12 08:08:51;;;;;;;10.05;2.97;;;15.50;95.20;;;;;;5064539;28;20199;-35
2022/04/12 08:11:24;;;;;;;4.10;2.08;;;15.70;95.10;;;;;;5057523;28;20212;-35
2022/04/12 08:13:54;;;;;;;3.77;1.80;;;15.70;95.10;;;;;;5056311;28;20645;-35
2022/04/12 08:16:21;;;;;;;5.25;2.00;;;15.80;95.10;;;;;;5067191;28;20203;-36
2022/04/12 08:18:50;;;;;;;5.30;1.98;;;15.90;95.20;;;;;;5059762;28;20216;-35
2022/04/12 08:21:38;;;;;;;6.70;2.00;;;16.00;95.10;;;;;;5069868;28;20265;-35
2022/04/12 08:24:07;;;;;;;5.38;1.75;;;16.10;95.10;;;;;;5051043;28;20203;-34
2022/04/12 08:26:38;;;;;;;6.20;3.20;;;16.10;95.20;;;;;;5064419;28;20238;-34
2022/04/12 08:29:08;;;;;;;5.32;1.73;;;16.20;95.20;;;;;;5063772;28;20231;-35
2022/04/12 08:31:39;;;;;;;4.68;1.73;;;16.20;95.20;;;;;;5066850;28;20192;-34
2022/04/12 08:34:09;;;;;;;3.25;1.60;;;16.20;95.20;;;;;;5066966;28;20203;-34
2022/04/12 08:36:39;;;;;;;4.90;1.80;;;16.30;95.30;;;;;;5061560;28;20341;-34
2022/04/12 08:39:08;;;;;;;5.40;1.70;;;16.40;95.30;;;;;;5065388;28;20585;-35
2022/04/12 08:41:40;;;;;;;3.17;1.80;;;16.50;95.30;;;;;;5048164;28;20587;-35
2022/04/12 08:44:10;;;;;;;3.67;1.80;;;16.60;95.40;;;;;;5063753;28;20567;-36
2022/04/12 08:46:46;;;;;;;4.20;1.75;;;16.60;95.40;;;;;;5066367;28;20266;-35
2022/04/12 08:49:17;;;;;;;6.75;2.78;;;16.70;95.50;;;;;;5064299;28;20191;-36
2022/04/12 08:51:46;;;;;;;5.57;1.95;;;16.70;95.60;;;;;;5054230;28;20291;-34
2022/04/12 08:54:14;;;;;;;5.30;1.65;;;16.80;95.60;;;;;;5065300;28;20322;-35
2022/04/12 08:56:43;;;;;;;3.45;1.70;;;16.90;95.70;;;;;;5056470;28;20266;-35
2022/04/12 08:59:18;;;;;;;8.32;1.90;;;16.90;95.70;;;;;;5049507;28;20212;-35
2022/04/12 09:01:49;;;;;;;3.80;1.95;;;17.00;95.70;;;;;;5064153;28;20628;-35
2022/04/12 09:04:17;;;;;;;4.13;2.10;;;17.10;95.70;;;;;;5060299;28;20404;-35
2022/04/12 09:06:52;;;;;;;4.72;2.17;;;17.20;95.80;;;;;;5055039;28;20738;-34
2022/04/12 09:09:27;;;;;;;4.90;2.35;;;17.20;95.90;;;;;;5054292;28;20203;-34
2022/04/12 09:11:58;;;;;;;3.53;1.77;;;17.30;95.90;;;;;;5062783;28;20725;-34
2022/04/12 09:14:42;;;;;;;5.13;2.50;;;17.40;96.00;;;;;;5046733;28;20196;-35
2022/04/12 09:17:13;;;;;;;3.85;1.90;;;17.50;96.00;;;;;;5060463;28;20203;-34
2022/04/12 09:19:49;;;;;;;5.20;2.00;;;17.50;96.10;;;;;;5063299;28;20209;-34
2022/04/12 09:22:27;;;;;;;6.60;1.90;;;17.60;96.10;;;;;;5068992;28;20299;-35
2022/04/12 09:25:07;;;;;;;6.00;2.00;;;17.70;96.20;;;;;;5060805;28;20228;-35
2022/04/12 09:27:37;;;;;;;3.72;2.00;;;17.70;96.30;;;;;;5052537;28;20754;-36
2022/04/12 09:30:12;;;;;;;5.50;1.67;;;17.80;96.20;;;;;;5065395;28;20238;-35
2022/04/12 09:32:51;;;;;;;4.80;2.08;;;17.90;96.30;;;;;;5061633;28;20202;-35
2022/04/12 09:35:21;;;;;;;5.10;2.20;;;18.00;96.30;;;;;;5047942;28;20203;-35
2022/04/12 09:37:53;;;;;;;4.13;1.90;;;18.10;96.30;;;;;;5065462;28;20203;-35
2022/04/12 09:40:25;;;;;;;3.35;1.80;;;18.20;96.30;;;;;;5067394;28;20234;-35
2022/04/12 09:43:01;;;;;;;4.60;2.03;;;18.30;96.40;;;;;;5067474;28;20223;-35
2022/04/12 09:45:32;;;;;;;3.03;2.35;;;18.40;96.40;;;;;;5063667;28;20219;-35
2022/04/12 09:48:04;;;;;;;5.35;2.05;;;18.50;96.40;;;;;;5064322;28;20558;-35
2022/04/12 09:50:59;;;;;;;5.00;2.10;;;18.60;96.60;;;;;;5067525;28;20208;-35
2022/04/12 09:53:38;;;;;;;4.95;1.95;;;18.80;96.60;;;;;;5067021;28;20229;-35
2022/04/12 09:56:16;;;;;;;5.53;2.00;;;18.80;96.60;;;;;;5061711;28;20235;-35
2022/04/12 09:58:48;;;;;;;2.85;1.85;;;19.00;96.70;;;;;;5056960;28;20284;-35
2022/04/12 10:01:19;;;;;;;5.50;2.30;;;19.00;96.80;;;;;;5065943;28;20218;-36
2022/04/12 10:03:53;;;;;;;4.57;1.83;;;19.10;96.90;;;;;;5066294;28;20326;-35
2022/04/12 10:06:25;;;;;;;4.95;2.00;;;19.10;96.80;;;;;;5060918;28;20220;-38
2022/04/12 10:09:01;;;;;;;2.97;2.10;;;19.20;96.80;;;;;;5047479;28;20204;-35
2022/04/12 10:11:32;;;;;;;4.43;2.28;;;19.30;96.60;;;;;;5066224;28;20207;-35
2022/04/12 10:14:02;;;;;;;7.20;2.28;;;19.40;96.60;;;;;;5065738;28;20199;-35
2022/04/12 10:16:34;;;;;;;5.57;2.45;;;19.40;96.70;;;;;;5060962;28;20645;-35
2022/04/12 10:19:02;;;;;;;4.43;1.88;;;19.50;96.70;;;;;;5066226;28;20204;-35
2022/04/12 10:21:31;;;;;;;5.68;2.28;;;19.50;96.90;;;;;;5066783;28;20260;-35
2022/04/12 10:24:03;;;;;;;5.55;2.55;;;19.60;96.50;;;;;;5065822;28;20833;-35
2022/04/12 10:26:31;;;;;;;7.07;2.55;;;19.60;96.40;;;;;;5061231;28;20288;-35
2022/04/12 10:29:00;;;;;;;6.28;1.90;;;19.70;96.80;;;;;;5048378;28;20294;-36
2022/04/12 10:31:34;;;;;;;4.30;1.80;;;19.70;96.40;;;;;;5051695;28;20843;-35
2022/04/12 10:34:14;;;;;;;7.45;1.70;;;19.80;96.60;;;;;;5062002;28;20297;-35
2022/04/12 10:37:05;;;;;;;4.70;1.42;;;19.90;95.70;;;;;;5053996;28;20211;-35
2022/04/12 10:40:04;;;;;;;5.65;2.28;;;19.90;96.50;;;;;;5045075;28;20222;-35
2022/04/12 10:42:34;;;;;;;4.20;1.55;;;19.90;96.00;;;;;;5065290;28;20294;-34
2022/04/12 10:45:04;;;;;;;4.05;1.95;;;19.90;96.50;;;;;;5058228;28;20204;-35
2022/04/12 10:47:32;;;;;;;4.20;1.73;;;20.00;96.00;;;;;;5057240;28;20226;-35
2022/04/12 10:50:07;;;;;;;3.70;2.00;;;20.00;96.50;;;;;;5060122;28;20219;-34
2022/04/12 10:52:42;;;;;;;4.65;1.60;;;20.10;96.50;;;;;;5064098;28;20207;-34
2022/04/12 10:55:13;;;;;;;4.75;1.83;;;20.10;96.50;;;;;;5058900;28;20236;-34
2022/04/12 10:57:45;;;;;;;3.53;1.83;;;20.20;96.20;;;;;;5059411;28;20223;-35
2022/04/12 11:00:18;;;;;;;2.30;1.58;;;20.20;96.30;;;;;;5057673;28;20338;-35
2022/04/12 11:02:57;;;;;;;5.22;1.83;;;20.30;96.40;;;;;;5050423;28;20196;-35
2022/04/12 11:05:39;;;;;;;4.20;1.40;;;20.40;96.20;;;;;;5044757;28;20212;-35
2022/04/12 11:08:16;;;;;;;3.65;1.85;;;20.40;96.70;;;;;;5061150;28;20310;-35
2022/04/12 11:10:54;;;;;;;4.78;1.90;;;20.40;96.60;;;;;;5048098;28;20207;-35
2022/04/12 11:13:27;;;;;;;3.40;1.60;;;20.50;96.90;;;;;;5067369;28;20703;-35
2022/04/12 11:16:11;;;;;;;3.00;1.77;;;20.50;97.00;;;;;;5062348;28;20208;-35
2022/04/12 11:18:56;;;;;;;3.25;1.30;;;20.60;97.00;;;;;;5068013;28;20206;-35
2022/04/12 11:21:24;;;;;;;2.53;1.50;;;20.70;97.00;;;;;;5055546;28;20298;-35
2022/04/12 11:23:58;;;;;;;4.05;1.65;;;20.70;97.00;;;;;;5051621;28;20277;-35
2022/04/12 11:26:40;;;;;;;3.80;1.30;;;20.80;97.20;;;;;;5065952;28;20301;-35
2022/04/12 11:29:17;;;;;;;5.43;2.08;;;20.90;96.80;;;;;;5047694;28;20203;-35
2022/04/12 11:31:50;;;;;;;3.30;1.50;;;21.00;96.40;;;;;;5060001;28;20214;-35
2022/04/12 11:34:18;;;;;;;4.70;1.73;;;21.00;96.90;;;;;;5066746;28;20216;-35
2022/04/12 11:36:52;;;;;;;3.00;1.50;;;21.00;96.70;;;;;;5067880;28;20238;-35
2022/04/12 11:39:27;;;;;;;3.65;1.55;;;21.10;96.90;;;;;;5066602;28;20294;-35
2022/04/12 11:42:10;;;;;;;6.28;2.00;;;21.10;96.80;;;;;;5049121;28;20642;-36
2022/04/12 11:44:37;;;;;;;3.25;1.52;;;21.20;96.50;;;;;;5060032;28;20219;-35
2022/04/12 11:47:10;;;;;;;3.75;1.75;;;21.20;96.90;;;;;;5065264;28;20211;-35
2022/04/12 11:49:41;;;;;;;2.85;1.48;;;21.30;96.30;;;;;;5058873;28;20196;-35
2022/04/12 11:52:11;;;;;;;5.13;1.40;;;21.30;96.60;;;;;;5061069;28;20248;-35
2022/04/12 11:54:40;;;;;;;4.03;1.60;;;21.30;96.60;;;;;;5041619;28;20314;-35
2022/04/12 11:57:15;;;;;;;2.60;1.40;;;21.40;96.60;;;;;;5057779;28;20208;-35
2022/04/12 11:59:47;;;;;;;4.40;2.03;;;21.40;97.00;;;;;;5062301;28;20555;-35
2022/04/12 12:02:18;;;;;;;3.15;1.52;;;21.50;96.70;;;;;;5062110;28;20212;-35
2022/04/12 12:04:48;;;;;;;4.60;1.75;;;21.60;96.70;;;;;;5057331;28;20218;-35
2022/04/12 12:07:19;;;;;;;2.17;1.33;;;21.60;96.70;;;;;;5050985;28;20220;-34
2022/04/12 12:10:01;;;;;;;3.38;1.85;;;21.70;96.80;;;;;;5063088;28;20226;-35
2022/04/12 12:12:39;;;;;;;5.05;1.30;;;21.80;96.90;;;;;;5054704;28;20619;-36
2022/04/12 12:15:22;;;;;;;4.43;2.08;;;21.90;97.10;;;;;;5054133;28;20689;-35
2022/04/12 12:17:51;;;;;;;2.90;1.70;;;21.90;96.90;;;;;;5050002;28;20758;-36
2022/04/12 12:20:23;;;;;;;5.65;1.85;;;21.90;97.10;;;;;;5058488;28;20199;-34
2022/04/12 12:22:55;;;;;;;5.45;1.88;;;22.00;97.20;;;;;;5064275;28;20211;-35
2022/04/12 12:25:37;;;;;;;3.72;1.67;;;22.00;97.00;;;;;;5065595;28;20345;-35
2022/04/12 12:28:10;;;;;;;3.35;1.50;;;22.10;96.70;;;;;;5052986;28;20240;-34
2022/04/12 12:30:41;;;;;;;5.57;1.95;;;22.20;96.90;;;;;;5064837;28;20199;-34
2022/04/12 12:33:11;;;;;;;4.30;1.60;;;22.20;96.90;;;;;;5067007;28;20208;-36
2022/04/12 12:35:44;;;;;;;2.90;1.52;;;22.30;97.20;;;;;;5064944;28;20733;-35
2022/04/12 12:38:16;;;;;;;4.32;1.70;;;22.30;96.80;;;;;;5066828;28;20235;-34
2022/04/12 12:40:45;;;;;;;5.72;1.70;;;22.40;97.00;;;;;;5061641;28;20211;-35
2022/04/12 12:43:14;;;;;;;4.25;1.60;;;22.40;97.00;;;;;;5063827;28;20306;-36
2022/04/12 12:45:50;;;;;;;2.90;1.60;;;22.50;96.50;;;;;;5046659;28;20196;-35
2022/04/12 12:48:17;;;;;;;2.80;1.65;;;22.50;96.90;;;;;;5049150;28;20656;-36
2022/04/12 12:50:51;;;;;;;3.50;1.50;;;22.60;97.00;;;;;;5061143;28;20214;-34
2022/04/12 12:53:25;;;;;;;4.72;2.38;;;22.60;95.60;;;;;;5059707;28;20648;-34
2022/04/12 12:55:53;;;;;;;3.00;1.23;;;22.70;95.90;;;;;;5054120;28;20290;-34
2022/04/12 12:58:29;;;;;;;3.58;1.55;;;22.70;96.40;;;;;;5048713;28;20258;-35
2022/04/12 13:01:06;;;;;;;3.22;1.40;;;22.80;96.50;;;;;;5059866;28;20240;-34
2022/04/12 13:03:38;;;;;;;5.07;1.48;;;22.80;96.80;;;;;;5066000;28;20235;-34
2022/04/12 13:06:10;;;;;;;5.53;1.83;;;22.80;95.80;;;;;;5066299;28;20290;-35